Auburn, MA (01501)

5:04 PM EDT on September 01, 2014 (GMT -0400)
Pakachoag Golf Course Vicinity | Change Station
CLOSE
Current Station
Personal Weather Station
Location: Auburn, MA
Elevation: 640 ft
Nearby Weather Stations

Elev 640 ft 42.22 °N, 71.81 °W | Updated 8 minutes ago

Clear
Clear
82.6 °F
Feels Like 86 °F
N
3.0
Wind Variable Wind from WNW
Gusts 10.0 mph

Today
High -- | Low -- °F
--% Chance of Precip.
Yesterday
High -- | Low -- °F
Precip. -- in
6:12 AM 7:21 PM
Waxing Crescent, 44% visible
Pressure 29.96 in
Visibility 10.0 miles
Clouds Clear
Heat Index 86 °F
Dew Point 69 °F
Humidity 63%
Rainfall 0.00 in
Snow Depth Not available.
UV 3 out of 12
Pollen 6.30 out of 12
PM2.5 Good
Flu Activity Not available.
METAR KORH 012054Z 25007KT 10SM CLR 27/19 A2997 RMK AO2 SLP143 T02720194 55008

More Conditions Fewer Conditions

Pressure 29.96 in
Visibility 10.0 miles
Clouds Clear
Heat Index 86 °F
Dew Point 69 °F
Humidity 63%
Rainfall 0.00 in
Snow Depth Not available.
UV 3 out of 12
Pollen 6.30 out of 12
PM2.5 Good
Flu Activity Not available.
METAR KORH 012054Z 25007KT 10SM CLR 27/19 A2997 RMK AO2 SLP143 T02720194 55008

More Conditions Fewer Conditions

10-Day Weather Forecast

Almanac

Astronomy

Sep. 01, 2014 Rise Set
Actual Time 6:12 AM EDT 7:21 PM EDT
Civil Twilight 5:43 AM EDT 7:49 PM EDT
Nautical Twilight 5:09 AM EDT 8:24 PM EDT
Astronomical Twilight 4:33 AM EDT 9:00 PM EDT
Moon 1:02 PM EDT 11:12 PM EDT
Length of Visible Light 14h 06m
Length of Day
13h 08m
Tomorrow will be 2m 44s shorter.
Waxing Crescent, 44% of the Moon is Illuminated
Today
Waxing Crescent
Sep 2
First Quarter
Sep 8
Full
Sep 15
Last Quarter
Sep 24
New

Today's Extremes

State Highs State Lows

Community

WunderPhotos

Upload Photos

1,749,407 photos uploaded!

WunderBlogs® & News

Nearby

Air Quality

  Air Quality AQ Index Pollutant
Yesterday Good
PM2.5
Yesterday Good
OZONE
Current Good
PM2.5
Monday Good
PM2.5
Monday Good
OZONE
Tuesday Moderate
PM2.5
Tuesday Good
OZONE

Snow Depth

Station Depth Elevation
No new snow has been reported.

Earthquake Activity

City Distance Mag. Time & Date
No recent earthquake activity has been reported nearby.
Minimum magnitude displayed is 2.5.

Coastal Water Temperatures

Place Temperature
No Stations Reporting

Nearby Weather Stations